sensor_id;sensor_type;location;lat;lon;timestamp;temperature;humidity
5150;DHT22;2593;52.466;13.436;2023-03-03T00:00:59;0.80;1.00
5150;DHT22;2593;52.466;13.436;2023-03-03T00:03:25;0.90;99.90
5150;DHT22;2593;52.466;13.436;2023-03-03T00:05:52;0.80;1.00
5150;DHT22;2593;52.466;13.436;2023-03-03T00:08:19;0.90;1.00
5150;DHT22;2593;52.466;13.436;2023-03-03T00:10:45;0.90;99.90
5150;DHT22;2593;52.466;13.436;2023-03-03T00:13:30;0.80;1.00
5150;DHT22;2593;52.466;13.436;2023-03-03T00:16:14;0.80;99.90
5150;DHT22;2593;52.466;13.436;2023-03-03T00:18:42;0.60;99.90
5150;DHT22;2593;52.466;13.436;2023-03-03T00:24:00;0.50;1.00
5150;DHT22;2593;52.466;13.436;2023-03-03T00:26:34;0.40;99.90
5150;DHT22;2593;52.466;13.436;2023-03-03T00:29:01;0.40;99.90
5150;DHT22;2593;52.466;13.436;2023-03-03T00:31:32;0.50;99.90
5150;DHT22;2593;52.466;13.436;2023-03-03T00:36:42;0.50;1.00
5150;DHT22;2593;52.466;13.436;2023-03-03T00:41:56;0.60;99.90
5150;DHT22;2593;52.466;13.436;2023-03-03T00:47:24;0.60;1.00
5150;DHT22;2593;52.466;13.436;2023-03-03T00:49:52;0.70;1.00
5150;DHT22;2593;52.466;13.436;2023-03-03T00:52:19;0.70;1.00
5150;DHT22;2593;52.466;13.436;2023-03-03T00:54:45;0.60;1.00
5150;DHT22;2593;52.466;13.436;2023-03-03T00:57:10;0.60;39.70
5150;DHT22;2593;52.466;13.436;2023-03-03T00:59:39;0.60;99.90
5150;DHT22;2593;52.466;13.436;2023-03-03T01:02:05;0.70;1.00
5150;DHT22;2593;52.466;13.436;2023-03-03T01:04:31;0.60;99.90
5150;DHT22;2593;52.466;13.436;2023-03-03T01:06:56;0.60;99.90
5150;DHT22;2593;52.466;13.436;2023-03-03T01:09:22;0.60;1.00
5150;DHT22;2593;52.466;13.436;2023-03-03T01:11:49;0.60;1.00
5150;DHT22;2593;52.466;13.436;2023-03-03T01:14:14;0.60;99.90
5150;DHT22;2593;52.466;13.436;2023-03-03T01:16:40;0.60;1.00
5150;DHT22;2593;52.466;13.436;2023-03-03T01:19:06;0.60;1.00
5150;DHT22;2593;52.466;13.436;2023-03-03T01:21:32;0.60;1.00
5150;DHT22;2593;52.466;13.436;2023-03-03T01:23:58;0.60;3.50
5150;DHT22;2593;52.466;13.436;2023-03-03T01:26:24;0.70;1.00
5150;DHT22;2593;52.466;13.436;2023-03-03T01:28:49;0.60;1.00
5150;DHT22;2593;52.466;13.436;2023-03-03T01:31:15;0.70;1.00
5150;DHT22;2593;52.466;13.436;2023-03-03T01:33:41;0.70;1.00
5150;DHT22;2593;52.466;13.436;2023-03-03T01:36:07;0.80;1.00
5150;DHT22;2593;52.466;13.436;2023-03-03T01:38:37;0.80;1.00
5150;DHT22;2593;52.466;13.436;2023-03-03T01:41:03;0.80;99.90
5150;DHT22;2593;52.466;13.436;2023-03-03T01:43:30;0.80;10.60
5150;DHT22;2593;52.466;13.436;2023-03-03T01:48:29;0.90;99.90
5150;DHT22;2593;52.466;13.436;2023-03-03T01:51:20;0.90;99.90
5150;DHT22;2593;52.466;13.436;2023-03-03T01:53:53;0.90;99.90
5150;DHT22;2593;52.466;13.436;2023-03-03T01:56:21;0.90;52.30
5150;DHT22;2593;52.466;13.436;2023-03-03T01:59:39;0.90;30.70
5150;DHT22;2593;52.466;13.436;2023-03-03T02:01:46;0.90;98.10
5150;DHT22;2593;52.466;13.436;2023-03-03T02:04:12;0.80;99.90
5150;DHT22;2593;52.466;13.436;2023-03-03T02:06:42;0.80;99.90
5150;DHT22;2593;52.466;13.436;2023-03-03T02:09:26;0.80;1.00
5150;DHT22;2593;52.466;13.436;2023-03-03T02:11:56;0.80;99.90
5150;DHT22;2593;52.466;13.436;2023-03-03T02:14:23;0.80;99.90
5150;DHT22;2593;52.466;13.436;2023-03-03T02:16:49;0.80;1.00
5150;DHT22;2593;52.466;13.436;2023-03-03T02:21:49;0.80;91.80
5150;DHT22;2593;52.466;13.436;2023-03-03T02:24:25;0.80;99.90
5150;DHT22;2593;52.466;13.436;2023-03-03T02:26:51;0.80;99.90
5150;DHT22;2593;52.466;13.436;2023-03-03T02:29:17;0.80;99.90
5150;DHT22;2593;52.466;13.436;2023-03-03T02:31:43;0.80;99.90
5150;DHT22;2593;52.466;13.436;2023-03-03T02:34:08;0.90;99.90
5150;DHT22;2593;52.466;13.436;2023-03-03T02:36:36;0.90;80.80
5150;DHT22;2593;52.466;13.436;2023-03-03T02:39:15;0.90;1.00
5150;DHT22;2593;52.466;13.436;2023-03-03T02:44:26;0.90;1.00
5150;DHT22;2593;52.466;13.436;2023-03-03T02:46:54;0.90;1.00
5150;DHT22;2593;52.466;13.436;2023-03-03T02:49:25;0.90;27.20
5150;DHT22;2593;52.466;13.436;2023-03-03T02:51:51;1.00;1.00
5150;DHT22;2593;52.466;13.436;2023-03-03T02:54:19;0.90;1.00
5150;DHT22;2593;52.466;13.436;2023-03-03T02:56:45;0.90;1.00
5150;DHT22;2593;52.466;13.436;2023-03-03T02:59:11;0.90;1.00
5150;DHT22;2593;52.466;13.436;2023-03-03T03:01:38;1.00;1.00
5150;DHT22;2593;52.466;13.436;2023-03-03T03:04:09;0.90;1.00
5150;DHT22;2593;52.466;13.436;2023-03-03T03:06:35;0.90;1.00
5150;DHT22;2593;52.466;13.436;2023-03-03T03:09:02;0.90;99.90
5150;DHT22;2593;52.466;13.436;2023-03-03T03:11:27;0.90;95.80
5150;DHT22;2593;52.466;13.436;2023-03-03T03:13:53;0.90;99.90
5150;DHT22;2593;52.466;13.436;2023-03-03T03:16:19;0.90;99.90
5150;DHT22;2593;52.466;13.436;2023-03-03T03:18:44;0.90;99.90
5150;DHT22;2593;52.466;13.436;2023-03-03T03:21:11;0.90;1.00
5150;DHT22;2593;52.466;13.436;2023-03-03T03:23:38;0.80;1.00
5150;DHT22;2593;52.466;13.436;2023-03-03T03:26:04;0.90;35.30
5150;DHT22;2593;52.466;13.436;2023-03-03T03:28:30;0.90;76.20
5150;DHT22;2593;52.466;13.436;2023-03-03T03:30:56;0.80;1.00
5150;DHT22;2593;52.466;13.436;2023-03-03T03:33:22;0.90;99.90
5150;DHT22;2593;52.466;13.436;2023-03-03T03:35:47;0.90;1.00
5150;DHT22;2593;52.466;13.436;2023-03-03T03:38:13;0.80;99.90
5150;DHT22;2593;52.466;13.436;2023-03-03T03:40:39;0.80;99.90
5150;DHT22;2593;52.466;13.436;2023-03-03T03:43:05;0.80;99.90
5150;DHT22;2593;52.466;13.436;2023-03-03T03:45:31;0.80;1.00
5150;DHT22;2593;52.466;13.436;2023-03-03T03:47:57;0.80;1.00
5150;DHT22;2593;52.466;13.436;2023-03-03T03:50:23;0.80;1.00
5150;DHT22;2593;52.466;13.436;2023-03-03T03:52:49;0.70;1.00
5150;DHT22;2593;52.466;13.436;2023-03-03T03:55:15;0.70;25.40
5150;DHT22;2593;52.466;13.436;2023-03-03T03:57:41;0.70;99.90
5150;DHT22;2593;52.466;13.436;2023-03-03T04:00:08;0.70;99.90
5150;DHT22;2593;52.466;13.436;2023-03-03T04:02:35;0.70;99.90
5150;DHT22;2593;52.466;13.436;2023-03-03T04:05:00;0.60;99.90
5150;DHT22;2593;52.466;13.436;2023-03-03T04:07:26;0.60;99.90
5150;DHT22;2593;52.466;13.436;2023-03-03T04:09:52;0.70;99.90
5150;DHT22;2593;52.466;13.436;2023-03-03T04:12:18;0.60;1.00
5150;DHT22;2593;52.466;13.436;2023-03-03T04:14:43;0.70;1.00
5150;DHT22;2593;52.466;13.436;2023-03-03T04:17:18;0.60;1.00
5150;DHT22;2593;52.466;13.436;2023-03-03T04:19:43;0.60;1.00
5150;DHT22;2593;52.466;13.436;2023-03-03T04:22:09;0.60;1.00
5150;DHT22;2593;52.466;13.436;2023-03-03T04:24:35;0.60;1.00
5150;DHT22;2593;52.466;13.436;2023-03-03T04:27:00;0.60;1.00
5150;DHT22;2593;52.466;13.436;2023-03-03T04:29:26;0.60;1.00
5150;DHT22;2593;52.466;13.436;2023-03-03T04:31:52;0.60;14.10
5150;DHT22;2593;52.466;13.436;2023-03-03T04:34:17;0.60;52.70
5150;DHT22;2593;52.466;13.436;2023-03-03T04:36:43;0.60;50.60
5150;DHT22;2593;52.466;13.436;2023-03-03T04:39:09;0.50;1.00
5150;DHT22;2593;52.466;13.436;2023-03-03T04:41:34;0.60;1.60
5150;DHT22;2593;52.466;13.436;2023-03-03T04:44:00;0.50;4.90
5150;DHT22;2593;52.466;13.436;2023-03-03T04:46:25;0.50;1.00
5150;DHT22;2593;52.466;13.436;2023-03-03T04:48:51;0.50;1.00
5150;DHT22;2593;52.466;13.436;2023-03-03T04:51:17;0.50;1.00
5150;DHT22;2593;52.466;13.436;2023-03-03T04:53:43;0.50;1.00
5150;DHT22;2593;52.466;13.436;2023-03-03T04:56:08;0.50;99.10
5150;DHT22;2593;52.466;13.436;2023-03-03T04:58:34;0.40;82.90
5150;DHT22;2593;52.466;13.436;2023-03-03T05:01:00;0.50;99.90
5150;DHT22;2593;52.466;13.436;2023-03-03T05:03:25;0.50;99.90
5150;DHT22;2593;52.466;13.436;2023-03-03T05:05:51;0.50;99.90
5150;DHT22;2593;52.466;13.436;2023-03-03T05:08:17;0.50;99.90
5150;DHT22;2593;52.466;13.436;2023-03-03T05:10:43;0.40;99.90
5150;DHT22;2593;52.466;13.436;2023-03-03T05:13:09;0.40;99.90
5150;DHT22;2593;52.466;13.436;2023-03-03T05:15:35;0.40;99.90
5150;DHT22;2593;52.466;13.436;2023-03-03T05:18:01;0.40;99.90
5150;DHT22;2593;52.466;13.436;2023-03-03T05:20:26;0.40;99.90
5150;DHT22;2593;52.466;13.436;2023-03-03T05:22:52;0.30;99.90
5150;DHT22;2593;52.466;13.436;2023-03-03T05:25:18;0.30;99.90
5150;DHT22;2593;52.466;13.436;2023-03-03T05:27:44;0.20;99.90
5150;DHT22;2593;52.466;13.436;2023-03-03T05:30:11;0.10;99.90
5150;DHT22;2593;52.466;13.436;2023-03-03T05:32:36;0.20;99.90
5150;DHT22;2593;52.466;13.436;2023-03-03T05:35:04;0.10;1.00
5150;DHT22;2593;52.466;13.436;2023-03-03T05:37:29;0.10;1.00
5150;DHT22;2593;52.466;13.436;2023-03-03T05:39:55;0.10;1.00
5150;DHT22;2593;52.466;13.436;2023-03-03T05:42:21;0.20;1.00
5150;DHT22;2593;52.466;13.436;2023-03-03T05:44:46;0.10;1.00
5150;DHT22;2593;52.466;13.436;2023-03-03T05:47:12;0.20;1.00
5150;DHT22;2593;52.466;13.436;2023-03-03T05:49:38;0.10;1.00
5150;DHT22;2593;52.466;13.436;2023-03-03T05:52:04;0.10;1.00
5150;DHT22;2593;52.466;13.436;2023-03-03T05:54:29;0.20;1.00
5150;DHT22;2593;52.466;13.436;2023-03-03T05:56:55;0.20;1.00
5150;DHT22;2593;52.466;13.436;2023-03-03T05:59:25;0.10;1.00
5150;DHT22;2593;52.466;13.436;2023-03-03T06:01:50;0.20;1.00
5150;DHT22;2593;52.466;13.436;2023-03-03T06:04:16;0.20;1.00
5150;DHT22;2593;52.466;13.436;2023-03-03T06:06:42;0.20;1.00
5150;DHT22;2593;52.466;13.436;2023-03-03T06:09:07;0.20;1.00
5150;DHT22;2593;52.466;13.436;2023-03-03T06:11:33;0.20;1.00
5150;DHT22;2593;52.466;13.436;2023-03-03T06:13:59;0.20;1.00
5150;DHT22;2593;52.466;13.436;2023-03-03T06:16:24;0.30;1.00
5150;DHT22;2593;52.466;13.436;2023-03-03T06:18:50;0.30;1.00
5150;DHT22;2593;52.466;13.436;2023-03-03T06:21:16;0.30;1.00
5150;DHT22;2593;52.466;13.436;2023-03-03T06:23:41;0.30;1.00
5150;DHT22;2593;52.466;13.436;2023-03-03T06:26:07;0.30;1.00
5150;DHT22;2593;52.466;13.436;2023-03-03T06:28:33;0.30;1.00
5150;DHT22;2593;52.466;13.436;2023-03-03T06:30:59;0.30;1.00
5150;DHT22;2593;52.466;13.436;2023-03-03T06:33:24;0.30;1.00
5150;DHT22;2593;52.466;13.436;2023-03-03T06:35:51;0.30;1.00
5150;DHT22;2593;52.466;13.436;2023-03-03T06:38:18;0.30;1.00
5150;DHT22;2593;52.466;13.436;2023-03-03T06:40:44;0.40;1.00
5150;DHT22;2593;52.466;13.436;2023-03-03T06:43:10;0.40;1.00
5150;DHT22;2593;52.466;13.436;2023-03-03T06:45:36;0.40;1.00
5150;DHT22;2593;52.466;13.436;2023-03-03T06:48:02;0.40;99.90
5150;DHT22;2593;52.466;13.436;2023-03-03T06:50:28;0.40;1.00
5150;DHT22;2593;52.466;13.436;2023-03-03T06:53:10;0.40;1.00
5150;DHT22;2593;52.466;13.436;2023-03-03T06:55:36;0.40;99.90
5150;DHT22;2593;52.466;13.436;2023-03-03T06:58:08;0.40;1.00
5150;DHT22;2593;52.466;13.436;2023-03-03T07:00:36;0.40;1.00
5150;DHT22;2593;52.466;13.436;2023-03-03T07:03:11;0.40;1.00
5150;DHT22;2593;52.466;13.436;2023-03-03T07:05:37;0.40;1.00
5150;DHT22;2593;52.466;13.436;2023-03-03T07:08:09;0.40;1.00
5150;DHT22;2593;52.466;13.436;2023-03-03T07:10:38;0.40;99.90
5150;DHT22;2593;52.466;13.436;2023-03-03T07:15:48;0.40;99.90
5150;DHT22;2593;52.466;13.436;2023-03-03T07:18:22;0.50;99.90
5150;DHT22;2593;52.466;13.436;2023-03-03T07:20:50;0.50;99.90
5150;DHT22;2593;52.466;13.436;2023-03-03T07:23:24;0.60;99.90
5150;DHT22;2593;52.466;13.436;2023-03-03T07:25:51;0.50;99.90
5150;DHT22;2593;52.466;13.436;2023-03-03T07:28:28;0.50;99.90
5150;DHT22;2593;52.466;13.436;2023-03-03T07:30:56;0.60;99.90
5150;DHT22;2593;52.466;13.436;2023-03-03T07:33:28;0.50;99.90
5150;DHT22;2593;52.466;13.436;2023-03-03T07:35:57;0.50;99.90
5150;DHT22;2593;52.466;13.436;2023-03-03T07:38:33;0.60;99.90
5150;DHT22;2593;52.466;13.436;2023-03-03T07:41:01;0.60;99.90
5150;DHT22;2593;52.466;13.436;2023-03-03T07:43:33;0.60;99.90
5150;DHT22;2593;52.466;13.436;2023-03-03T07:46:16;0.70;99.90
5150;DHT22;2593;52.466;13.436;2023-03-03T07:48:45;0.70;99.90
5150;DHT22;2593;52.466;13.436;2023-03-03T07:51:26;0.70;99.90
5150;DHT22;2593;52.466;13.436;2023-03-03T07:54:30;0.70;99.90
5150;DHT22;2593;52.466;13.436;2023-03-03T07:57:11;0.70;99.90
5150;DHT22;2593;52.466;13.436;2023-03-03T07:59:45;0.70;99.90
5150;DHT22;2593;52.466;13.436;2023-03-03T08:02:38;0.70;29.90
5150;DHT22;2593;52.466;13.436;2023-03-03T08:07:52;0.70;79.50
5150;DHT22;2593;52.466;13.436;2023-03-03T08:13:18;0.80;38.90
5150;DHT22;2593;52.466;13.436;2023-03-03T08:15:45;0.80;1.00
5150;DHT22;2593;52.466;13.436;2023-03-03T08:20:55;0.90;1.00
5150;DHT22;2593;52.466;13.436;2023-03-03T08:23:20;0.90;1.00
5150;DHT22;2593;52.466;13.436;2023-03-03T08:25:47;0.90;99.90
5150;DHT22;2593;52.466;13.436;2023-03-03T08:28:14;0.90;99.90
5150;DHT22;2593;52.466;13.436;2023-03-03T08:30:40;1.10;1.00
5150;DHT22;2593;52.466;13.436;2023-03-03T08:33:06;1.10;1.00
5150;DHT22;2593;52.466;13.436;2023-03-03T08:35:31;1.20;99.90
5150;DHT22;2593;52.466;13.436;2023-03-03T08:37:57;1.20;1.00
5150;DHT22;2593;52.466;13.436;2023-03-03T08:40:23;1.20;99.90
5150;DHT22;2593;52.466;13.436;2023-03-03T08:42:49;1.20;1.00
5150;DHT22;2593;52.466;13.436;2023-03-03T08:45:15;1.20;99.90
5150;DHT22;2593;52.466;13.436;2023-03-03T08:47:41;1.20;1.00
5150;DHT22;2593;52.466;13.436;2023-03-03T08:50:08;1.30;99.90
5150;DHT22;2593;52.466;13.436;2023-03-03T08:52:33;1.30;99.90
5150;DHT22;2593;52.466;13.436;2023-03-03T08:54:59;1.40;1.00
5150;DHT22;2593;52.466;13.436;2023-03-03T08:57:25;1.30;57.60
5150;DHT22;2593;52.466;13.436;2023-03-03T08:59:50;1.30;1.00
5150;DHT22;2593;52.466;13.436;2023-03-03T09:02:16;1.30;99.90
5150;DHT22;2593;52.466;13.436;2023-03-03T09:04:42;1.30;1.00
5150;DHT22;2593;52.466;13.436;2023-03-03T09:07:08;1.30;99.90
5150;DHT22;2593;52.466;13.436;2023-03-03T09:09:33;1.40;99.90
5150;DHT22;2593;52.466;13.436;2023-03-03T09:12:15;1.40;1.00
5150;DHT22;2593;52.466;13.436;2023-03-03T09:14:41;1.50;1.00
5150;DHT22;2593;52.466;13.436;2023-03-03T09:17:34;1.50;1.00
5150;DHT22;2593;52.466;13.436;2023-03-03T09:22:45;1.60;99.90
5150;DHT22;2593;52.466;13.436;2023-03-03T09:25:35;1.70;1.00
5150;DHT22;2593;52.466;13.436;2023-03-03T09:28:02;1.80;99.90
5150;DHT22;2593;52.466;13.436;2023-03-03T09:30:47;1.80;99.90
5150;DHT22;2593;52.466;13.436;2023-03-03T09:36:26;1.90;1.00
5150;DHT22;2593;52.466;13.436;2023-03-03T09:38:53;2.10;99.90
5150;DHT22;2593;52.466;13.436;2023-03-03T09:49:49;2.20;45.70
5150;DHT22;2593;52.466;13.436;2023-03-03T09:58:02;2.50;1.00
5150;DHT22;2593;52.466;13.436;2023-03-03T10:00:45;2.70;1.00
5150;DHT22;2593;52.466;13.436;2023-03-03T10:06:26;2.90;99.90
5150;DHT22;2593;52.466;13.436;2023-03-03T10:09:28;3.00;99.90
5150;DHT22;2593;52.466;13.436;2023-03-03T10:20:36;3.30;99.90
5150;DHT22;2593;52.466;13.436;2023-03-03T10:26:05;3.30;99.90
5150;DHT22;2593;52.466;13.436;2023-03-03T10:45:20;3.40;99.90
5150;DHT22;2593;52.466;13.436;2023-03-03T10:51:01;3.40;99.90
5150;DHT22;2593;52.466;13.436;2023-03-03T10:56:23;3.60;99.90
5150;DHT22;2593;52.466;13.436;2023-03-03T11:07:10;3.60;99.90
5150;DHT22;2593;52.466;13.436;2023-03-03T11:21:26;4.00;67.30
5150;DHT22;2593;52.466;13.436;2023-03-03T11:31:49;4.00;96.60
5150;DHT22;2593;52.466;13.436;2023-03-03T11:37:07;4.00;99.90
5150;DHT22;2593;52.466;13.436;2023-03-03T11:39:34;4.10;99.90
5150;DHT22;2593;52.466;13.436;2023-03-03T11:44:37;4.10;99.10
5150;DHT22;2593;52.466;13.436;2023-03-03T11:47:24;4.00;99.90
5150;DHT22;2593;52.466;13.436;2023-03-03T12:00:46;4.20;97.50
5150;DHT22;2593;52.466;13.436;2023-03-03T12:03:23;4.30;94.60
5150;DHT22;2593;52.466;13.436;2023-03-03T12:09:02;4.20;94.40
5150;DHT22;2593;52.466;13.436;2023-03-03T12:15:36;4.30;98.80
5150;DHT22;2593;52.466;13.436;2023-03-03T12:25:56;4.60;68.40
5150;DHT22;2593;52.466;13.436;2023-03-03T12:28:40;4.60;44.70
5150;DHT22;2593;52.466;13.436;2023-03-03T12:31:35;4.50;46.40
5150;DHT22;2593;52.466;13.436;2023-03-03T12:34:37;4.50;59.40
5150;DHT22;2593;52.466;13.436;2023-03-03T12:37:17;4.60;61.40
5150;DHT22;2593;52.466;13.436;2023-03-03T12:45:35;4.60;71.50
5150;DHT22;2593;52.466;13.436;2023-03-03T12:48:11;4.60;77.70
5150;DHT22;2593;52.466;13.436;2023-03-03T12:50:54;4.70;41.00
5150;DHT22;2593;52.466;13.436;2023-03-03T12:56:04;4.60;53.10
5150;DHT22;2593;52.466;13.436;2023-03-03T12:58:51;4.60;78.50
5150;DHT22;2593;52.466;13.436;2023-03-03T13:07:09;4.60;57.60
5150;DHT22;2593;52.466;13.436;2023-03-03T13:14:52;4.50;77.50
5150;DHT22;2593;52.466;13.436;2023-03-03T13:17:28;4.50;85.80
5150;DHT22;2593;52.466;13.436;2023-03-03T13:19:58;4.50;94.20
5150;DHT22;2593;52.466;13.436;2023-03-03T13:30:54;4.80;64.40
5150;DHT22;2593;52.466;13.436;2023-03-03T13:35:57;4.80;47.30
5150;DHT22;2593;52.466;13.436;2023-03-03T13:38:30;4.70;67.90
5150;DHT22;2593;52.466;13.436;2023-03-03T13:43:48;4.50;92.70
5150;DHT22;2593;52.466;13.436;2023-03-03T13:51:46;4.60;99.90
5150;DHT22;2593;52.466;13.436;2023-03-03T14:05:44;4.70;93.00
5150;DHT22;2593;52.466;13.436;2023-03-03T14:09:05;4.70;99.40
5150;DHT22;2593;52.466;13.436;2023-03-03T14:11:14;4.80;92.50
5150;DHT22;2593;52.466;13.436;2023-03-03T14:16:55;4.80;81.70
5150;DHT22;2593;52.466;13.436;2023-03-03T14:19:33;4.90;79.40
5150;DHT22;2593;52.466;13.436;2023-03-03T14:22:23;4.80;67.00
5150;DHT22;2593;52.466;13.436;2023-03-03T14:25:01;4.80;90.90
5150;DHT22;2593;52.466;13.436;2023-03-03T14:27:49;4.90;80.00
5150;DHT22;2593;52.466;13.436;2023-03-03T14:33:16;4.80;84.80
5150;DHT22;2593;52.466;13.436;2023-03-03T14:35:59;4.70;99.80
5150;DHT22;2593;52.466;13.436;2023-03-03T14:41:17;4.70;99.90
5150;DHT22;2593;52.466;13.436;2023-03-03T14:49:31;4.70;99.90
5150;DHT22;2593;52.466;13.436;2023-03-03T14:54:47;4.90;78.70
5150;DHT22;2593;52.466;13.436;2023-03-03T15:00:25;4.90;82.80
5150;DHT22;2593;52.466;13.436;2023-03-03T15:05:23;4.90;64.50
5150;DHT22;2593;52.466;13.436;2023-03-03T15:07:58;5.00;87.40
5150;DHT22;2593;52.466;13.436;2023-03-03T15:10:34;5.00;81.30
5150;DHT22;2593;52.466;13.436;2023-03-03T15:13:33;5.10;79.10
5150;DHT22;2593;52.466;13.436;2023-03-03T15:18:27;4.90;68.00
5150;DHT22;2593;52.466;13.436;2023-03-03T15:21:12;4.80;74.80
5150;DHT22;2593;52.466;13.436;2023-03-03T15:23:58;4.80;95.40
5150;DHT22;2593;52.466;13.436;2023-03-03T15:30:03;5.00;82.20
5150;DHT22;2593;52.466;13.436;2023-03-03T15:32:20;5.00;82.30
5150;DHT22;2593;52.466;13.436;2023-03-03T15:34:57;5.00;76.80
5150;DHT22;2593;52.466;13.436;2023-03-03T15:37:48;4.90;84.70
5150;DHT22;2593;52.466;13.436;2023-03-03T15:42:56;4.80;97.40
5150;DHT22;2593;52.466;13.436;2023-03-03T15:45:38;4.90;97.10
5150;DHT22;2593;52.466;13.436;2023-03-03T15:48:45;5.50;96.20
5150;DHT22;2593;52.466;13.436;2023-03-03T15:56:58;4.70;99.90
5150;DHT22;2593;52.466;13.436;2023-03-03T16:00:14;4.70;99.90
5150;DHT22;2593;52.466;13.436;2023-03-03T16:02:23;4.70;99.90
5150;DHT22;2593;52.466;13.436;2023-03-03T16:04:57;4.70;99.90
5150;DHT22;2593;52.466;13.436;2023-03-03T16:10:37;4.70;99.90
5150;DHT22;2593;52.466;13.436;2023-03-03T16:13:22;4.60;99.90
5150;DHT22;2593;52.466;13.436;2023-03-03T16:18:31;4.60;99.90
5150;DHT22;2593;52.466;13.436;2023-03-03T16:23:56;4.30;99.90
5150;DHT22;2593;52.466;13.436;2023-03-03T16:50:52;3.90;1.00
5150;DHT22;2593;52.466;13.436;2023-03-03T16:56:31;3.90;1.00
5150;DHT22;2593;52.466;13.436;2023-03-03T17:04:33;3.80;84.70
5150;DHT22;2593;52.466;13.436;2023-03-03T17:15:19;3.60;99.90
5150;DHT22;2593;52.466;13.436;2023-03-03T17:20:42;3.50;1.00
5150;DHT22;2593;52.466;13.436;2023-03-03T17:23:48;3.50;1.00
5150;DHT22;2593;52.466;13.436;2023-03-03T17:34:33;3.40;99.90
5150;DHT22;2593;52.466;13.436;2023-03-03T17:39:59;3.30;1.00
5150;DHT22;2593;52.466;13.436;2023-03-03T17:45:15;3.30;1.00
5150;DHT22;2593;52.466;13.436;2023-03-03T17:50:34;3.20;99.90
5150;DHT22;2593;52.466;13.436;2023-03-03T18:03:41;3.40;99.90
5150;DHT22;2593;52.466;13.436;2023-03-03T18:22:30;3.70;99.90
5150;DHT22;2593;52.466;13.436;2023-03-03T18:25:03;3.70;99.90
5150;DHT22;2593;52.466;13.436;2023-03-03T18:27:35;3.70;33.20
5150;DHT22;2593;52.466;13.436;2023-03-03T18:37:55;3.80;1.00
5150;DHT22;2593;52.466;13.436;2023-03-03T18:40:32;3.80;1.00
5150;DHT22;2593;52.466;13.436;2023-03-03T18:42:58;3.80;1.00
5150;DHT22;2593;52.466;13.436;2023-03-03T18:48:11;3.80;1.00
5150;DHT22;2593;52.466;13.436;2023-03-03T18:50:39;3.80;1.00
5150;DHT22;2593;52.466;13.436;2023-03-03T18:53:22;3.80;1.00
5150;DHT22;2593;52.466;13.436;2023-03-03T18:55:59;3.80;99.90
5150;DHT22;2593;52.466;13.436;2023-03-03T18:58:38;3.80;99.90
5150;DHT22;2593;52.466;13.436;2023-03-03T19:06:04;3.70;1.00
5150;DHT22;2593;52.466;13.436;2023-03-03T19:08:53;3.70;1.00
5150;DHT22;2593;52.466;13.436;2023-03-03T19:11:56;3.80;1.00
5150;DHT22;2593;52.466;13.436;2023-03-03T19:16:53;3.80;1.00
5150;DHT22;2593;52.466;13.436;2023-03-03T19:19:22;3.80;1.00
5150;DHT22;2593;52.466;13.436;2023-03-03T19:22:24;3.70;1.00
5150;DHT22;2593;52.466;13.436;2023-03-03T19:25:17;3.80;1.00
5150;DHT22;2593;52.466;13.436;2023-03-03T19:33:03;3.70;1.00
5150;DHT22;2593;52.466;13.436;2023-03-03T19:35:55;3.70;1.00
5150;DHT22;2593;52.466;13.436;2023-03-03T20:00:50;3.90;1.00
5150;DHT22;2593;52.466;13.436;2023-03-03T20:03:53;3.80;1.00
5150;DHT22;2593;52.466;13.436;2023-03-03T20:06:44;3.90;1.00
5150;DHT22;2593;52.466;13.436;2023-03-03T20:09:37;3.90;99.90
5150;DHT22;2593;52.466;13.436;2023-03-03T20:26:59;4.10;20.90
5150;DHT22;2593;52.466;13.436;2023-03-03T20:28:58;4.10;1.00
5150;DHT22;2593;52.466;13.436;2023-03-03T20:31:34;4.20;1.00
5150;DHT22;2593;52.466;13.436;2023-03-03T20:34:19;4.20;1.00
5150;DHT22;2593;52.466;13.436;2023-03-03T20:37:12;4.20;1.00
5150;DHT22;2593;52.466;13.436;2023-03-03T20:43:03;4.20;1.00
5150;DHT22;2593;52.466;13.436;2023-03-03T20:45:48;4.20;1.00
5150;DHT22;2593;52.466;13.436;2023-03-03T20:48:34;4.20;1.00
5150;DHT22;2593;52.466;13.436;2023-03-03T20:51:10;4.20;1.00
5150;DHT22;2593;52.466;13.436;2023-03-03T20:58:59;4.20;1.00
5150;DHT22;2593;52.466;13.436;2023-03-03T21:04:21;4.20;99.90
5150;DHT22;2593;52.466;13.436;2023-03-03T21:06:47;4.10;99.90
5150;DHT22;2593;52.466;13.436;2023-03-03T21:09:22;4.10;99.90
5150;DHT22;2593;52.466;13.436;2023-03-03T21:11:48;4.10;99.90
5150;DHT22;2593;52.466;13.436;2023-03-03T21:14:28;4.10;99.90
5150;DHT22;2593;52.466;13.436;2023-03-03T21:16:57;4.10;99.90
5150;DHT22;2593;52.466;13.436;2023-03-03T21:19:34;4.10;99.90
5150;DHT22;2593;52.466;13.436;2023-03-03T21:22:03;4.00;99.90
5150;DHT22;2593;52.466;13.436;2023-03-03T21:24:49;4.10;99.90
5150;DHT22;2593;52.466;13.436;2023-03-03T21:27:31;4.00;99.90
5150;DHT22;2593;52.466;13.436;2023-03-03T21:30:13;4.00;99.90
5150;DHT22;2593;52.466;13.436;2023-03-03T21:32:41;4.00;99.90
5150;DHT22;2593;52.466;13.436;2023-03-03T21:35:13;4.00;99.90
5150;DHT22;2593;52.466;13.436;2023-03-03T21:37:49;4.00;99.90
5150;DHT22;2593;52.466;13.436;2023-03-03T21:42:48;4.00;99.90
5150;DHT22;2593;52.466;13.436;2023-03-03T21:45:15;4.00;99.90
5150;DHT22;2593;52.466;13.436;2023-03-03T21:47:41;4.00;99.90
5150;DHT22;2593;52.466;13.436;2023-03-03T21:50:07;3.90;99.90
5150;DHT22;2593;52.466;13.436;2023-03-03T21:52:33;3.90;99.90
5150;DHT22;2593;52.466;13.436;2023-03-03T21:54:59;4.00;99.90
5150;DHT22;2593;52.466;13.436;2023-03-03T21:57:24;4.00;99.90
5150;DHT22;2593;52.466;13.436;2023-03-03T21:59:51;4.00;99.90
5150;DHT22;2593;52.466;13.436;2023-03-03T22:02:18;4.00;99.90
5150;DHT22;2593;52.466;13.436;2023-03-03T22:04:43;4.00;99.90
5150;DHT22;2593;52.466;13.436;2023-03-03T22:07:09;3.90;99.90
5150;DHT22;2593;52.466;13.436;2023-03-03T22:09:35;4.00;99.90
5150;DHT22;2593;52.466;13.436;2023-03-03T22:12:01;4.00;99.90
5150;DHT22;2593;52.466;13.436;2023-03-03T22:14:27;3.90;99.90
5150;DHT22;2593;52.466;13.436;2023-03-03T22:16:52;3.90;99.90
5150;DHT22;2593;52.466;13.436;2023-03-03T22:19:18;4.00;99.90
5150;DHT22;2593;52.466;13.436;2023-03-03T22:21:44;4.00;99.90
5150;DHT22;2593;52.466;13.436;2023-03-03T22:24:11;3.90;99.90
5150;DHT22;2593;52.466;13.436;2023-03-03T22:26:37;3.90;99.90
5150;DHT22;2593;52.466;13.436;2023-03-03T22:29:03;3.90;99.90
5150;DHT22;2593;52.466;13.436;2023-03-03T22:31:29;3.90;99.90
5150;DHT22;2593;52.466;13.436;2023-03-03T22:33:55;3.90;99.90
5150;DHT22;2593;52.466;13.436;2023-03-03T22:36:21;3.90;99.90
5150;DHT22;2593;52.466;13.436;2023-03-03T22:38:47;3.90;99.90
5150;DHT22;2593;52.466;13.436;2023-03-03T22:41:13;3.90;99.90
5150;DHT22;2593;52.466;13.436;2023-03-03T22:43:38;3.80;99.90
5150;DHT22;2593;52.466;13.436;2023-03-03T22:46:04;3.80;99.90
5150;DHT22;2593;52.466;13.436;2023-03-03T22:48:30;3.80;99.90
5150;DHT22;2593;52.466;13.436;2023-03-03T22:50:56;3.70;99.90
5150;DHT22;2593;52.466;13.436;2023-03-03T22:53:22;3.70;99.90
5150;DHT22;2593;52.466;13.436;2023-03-03T22:55:48;3.70;99.90
5150;DHT22;2593;52.466;13.436;2023-03-03T22:58:16;3.70;99.90
5150;DHT22;2593;52.466;13.436;2023-03-03T23:00:44;3.70;99.90
5150;DHT22;2593;52.466;13.436;2023-03-03T23:03:10;3.70;99.90
5150;DHT22;2593;52.466;13.436;2023-03-03T23:05:37;3.70;99.90
5150;DHT22;2593;52.466;13.436;2023-03-03T23:08:08;3.60;99.90
5150;DHT22;2593;52.466;13.436;2023-03-03T23:10:34;3.60;99.90
5150;DHT22;2593;52.466;13.436;2023-03-03T23:13:00;3.60;99.90
5150;DHT22;2593;52.466;13.436;2023-03-03T23:15:26;3.60;99.90